createdAt,value
2022-08-03T00:01:32.579Z,101447.69
2022-08-03T00:04:02.101Z,101446.88
2022-08-03T00:06:33.747Z,101451.31
2022-08-03T00:09:04.533Z,101435.63
2022-08-03T00:11:32.466Z,101446.06
2022-08-03T00:14:00.313Z,101445.25
2022-08-03T00:16:28.175Z,101449.69
2022-08-03T00:18:56.008Z,101438.44
2022-08-03T00:21:25.169Z,101439.63
2022-08-03T00:23:53.045Z,101440.44
2022-08-03T00:26:20.994Z,101444.06
2022-08-03T00:28:48.831Z,101434.81
2022-08-03T00:31:16.667Z,101434.81
2022-08-03T00:33:59.751Z,101424.34
2022-08-03T00:36:32.635Z,101431.19
2022-08-03T00:39:00.483Z,101431.19
2022-08-03T00:41:28.327Z,101420.75
2022-08-03T00:43:56.291Z,101419.53
2022-08-03T00:46:24.256Z,101424.34
2022-08-03T00:48:52.179Z,101421.53
2022-08-03T00:51:20.203Z,101425.56
2022-08-03T00:53:49.586Z,101417.13
2022-08-03T00:56:17.428Z,101414.28
2022-08-03T00:58:45.516Z,101416.28
2022-08-03T01:01:13.516Z,101410.66
2022-08-03T01:03:41.324Z,101417.13
2022-08-03T01:06:16.606Z,101415.50
2022-08-03T01:08:45.528Z,101405.03
2022-08-03T01:11:16.637Z,101414.28
2022-08-03T01:14:01.314Z,101411.47
2022-08-03T01:16:36.656Z,101411.47
2022-08-03T01:19:08.952Z,101407.34
2022-08-03T01:21:40.632Z,101408.59
2022-08-03T01:24:13.997Z,101412.22
2022-08-03T01:26:57.085Z,101405.41
2022-08-03T01:29:48.811Z,101403.41
2022-08-03T01:32:53.532Z,101398.59
2022-08-03T01:35:08.029Z,101396.94
2022-08-03T01:37:38.830Z,101396.94
2022-08-03T01:40:07.080Z,101399.75
2022-08-03T01:42:34.908Z,101396.94
2022-08-03T01:45:02.756Z,101402.56
2022-08-03T01:47:32.038Z,101395.34
2022-08-03T01:49:59.886Z,101393.31
2022-08-03T01:52:27.736Z,101391.31
2022-08-03T01:54:55.578Z,101401.78
2022-08-03T01:57:23.431Z,101395.34
2022-08-03T01:59:51.267Z,101392.50
2022-08-03T02:02:33.439Z,101400.97
2022-08-03T02:05:04.483Z,101392.50
2022-08-03T02:07:32.313Z,101396.13
2022-08-03T02:10:00.162Z,101396.94
2022-08-03T02:12:28.129Z,101392.50
2022-08-03T02:14:56.449Z,101389.69
2022-08-03T02:17:39.603Z,101392.50
2022-08-03T02:20:10.381Z,101393.72
2022-08-03T02:22:38.231Z,101396.13
2022-08-03T02:25:06.425Z,101389.69
2022-08-03T02:27:34.277Z,101398.16
2022-08-03T02:30:03.087Z,101399.34
2022-08-03T02:32:32.491Z,101393.72
2022-08-03T02:35:00.577Z,101399.34
2022-08-03T02:37:30.329Z,101392.91
2022-08-03T02:39:59.255Z,101387.28
2022-08-03T02:42:27.108Z,101385.25
2022-08-03T02:44:55.184Z,101388.06
2022-08-03T02:47:23.038Z,101392.91
2022-08-03T02:49:52.303Z,101392.09
2022-08-03T02:52:20.759Z,101396.53
2022-08-03T02:54:50.159Z,101397.72
2022-08-03T02:57:19.565Z,101397.72
2022-08-03T02:59:47.415Z,101393.72
2022-08-03T03:02:15.975Z,101400.16
2022-08-03T03:04:59.689Z,101397.72
2022-08-03T03:07:49.104Z,101404.16
2022-08-03T03:10:21.025Z,101400.53
2022-08-03T03:12:48.872Z,101399.34
2022-08-03T03:15:16.723Z,101401.72
2022-08-03T03:17:44.689Z,101400.53
2022-08-03T03:20:13.249Z,101403.34
2022-08-03T03:22:41.100Z,101403.34
2022-08-03T03:25:13.013Z,101399.72
2022-08-03T03:27:42.188Z,101403.34
2022-08-03T03:30:17.481Z,101395.28
2022-08-03T03:32:45.308Z,101401.72
2022-08-03T03:35:13.273Z,101403.34
2022-08-03T03:37:41.131Z,101400.53
2022-08-03T03:40:09.928Z,101396.09
2022-08-03T03:42:38.384Z,101396.09
2022-08-03T03:45:08.494Z,101392.09
2022-08-03T03:47:36.581Z,101397.72
2022-08-03T03:50:04.544Z,101396.09
2022-08-03T03:52:32.866Z,101395.28
2022-08-03T03:55:01.492Z,101390.47
2022-08-03T03:57:29.714Z,101398.09
2022-08-03T03:59:57.834Z,101393.28
2022-08-03T04:02:27.000Z,101389.66
2022-08-03T04:05:12.853Z,101387.66
2022-08-03T04:07:59.172Z,101388.84
2022-08-03T04:10:45.374Z,101388.84
2022-08-03T04:13:14.898Z,101388.84
2022-08-03T04:15:42.742Z,101387.19
2022-08-03T04:18:12.993Z,101400.91
2022-08-03T04:20:40.834Z,101394.47
2022-08-03T04:23:13.680Z,101400.09
2022-08-03T04:25:43.723Z,101394.47
2022-08-03T04:28:30.885Z,101394.47
2022-08-03T04:30:59.452Z,101405.72
2022-08-03T04:33:29.330Z,101398.44
2022-08-03T04:36:01.462Z,101401.72
2022-08-03T04:38:30.423Z,101405.72
2022-08-03T04:40:58.279Z,101407.69
2022-08-03T04:43:26.235Z,101405.72
2022-08-03T04:45:54.208Z,101409.69
2022-08-03T04:48:22.283Z,101404.06
2022-08-03T04:50:51.451Z,101398.44
2022-08-03T04:53:19.572Z,101408.88
2022-08-03T04:55:47.511Z,101412.50
2022-08-03T04:58:15.348Z,101415.31
2022-08-03T05:00:43.426Z,101413.72
2022-08-03T05:03:20.021Z,101415.31
2022-08-03T05:06:01.754Z,101415.31
2022-08-03T05:08:41.209Z,101409.69
2022-08-03T05:11:14.527Z,101417.34
2022-08-03T05:13:42.378Z,101408.06
2022-08-03T05:16:10.219Z,101415.31
2022-08-03T05:18:38.072Z,101414.50
2022-08-03T05:21:07.343Z,101409.69
2022-08-03T05:23:35.545Z,101408.88
2022-08-03T05:26:03.400Z,101411.69
2022-08-03T05:28:31.354Z,101412.50
2022-08-03T05:30:59.200Z,101411.69
2022-08-03T05:33:27.050Z,101405.25
2022-08-03T05:35:57.236Z,101413.72
2022-08-03T05:38:34.684Z,101413.72
2022-08-03T05:41:21.214Z,101415.31
2022-08-03T05:43:51.303Z,101421.78
2022-08-03T05:46:19.281Z,101419.34
2022-08-03T05:48:47.123Z,101416.53
2022-08-03T05:51:14.957Z,101426.59
2022-08-03T05:53:44.253Z,101425.78
2022-08-03T05:56:13.927Z,101435.03
2022-08-03T05:58:43.427Z,101432.22
2022-08-03T06:01:11.341Z,101438.66
2022-08-03T06:03:39.225Z,101430.59
2022-08-03T06:06:07.311Z,101435.03
2022-08-03T06:08:35.395Z,101429.41
2022-08-03T06:11:04.931Z,101437.84
2022-08-03T06:13:32.756Z,101443.47
2022-08-03T06:16:00.609Z,101439.50
2022-08-03T06:18:28.456Z,101435.03
2022-08-03T06:20:56.299Z,101432.22
2022-08-03T06:23:54.397Z,101435.03
2022-08-03T06:26:13.666Z,101432.22
2022-08-03T06:28:52.297Z,101437.84
2022-08-03T06:31:22.895Z,101433.03
2022-08-03T06:34:32.619Z,101432.22
2022-08-03T06:36:38.683Z,101437.84
2022-08-03T06:39:06.523Z,101433.03
2022-08-03T06:41:38.314Z,101423.78
2022-08-03T06:44:12.776Z,101423.78
2022-08-03T06:46:40.618Z,101435.03
2022-08-03T06:49:08.726Z,101432.22
2022-08-03T06:52:04.569Z,101429.41
2022-08-03T06:54:25.518Z,101429.41
2022-08-03T06:56:54.677Z,101432.22
2022-08-03T07:00:09.790Z,101420.94
2022-08-03T07:02:11.617Z,101423.78
2022-08-03T07:04:39.452Z,101421.78
2022-08-03T07:07:07.303Z,101411.34
2022-08-03T07:09:35.143Z,101422.59
2022-08-03T07:12:06.593Z,101416.97
2022-08-03T07:14:34.307Z,101415.31
2022-08-03T07:17:04.541Z,101419.78
2022-08-03T07:19:39.720Z,101416.97
2022-08-03T07:22:08.888Z,101422.59
2022-08-03T07:24:36.741Z,101419.78
2022-08-03T07:27:06.009Z,101422.59
2022-08-03T07:29:33.890Z,101422.59
2022-08-03T07:32:02.782Z,101424.22
2022-08-03T07:34:30.625Z,101416.97
2022-08-03T07:36:58.468Z,101422.59
2022-08-03T07:39:26.311Z,101431.88
2022-08-03T07:41:54.160Z,101422.59
2022-08-03T07:44:23.321Z,101422.59
2022-08-03T07:46:51.961Z,101422.59
2022-08-03T07:49:19.895Z,101418.59
2022-08-03T07:52:08.355Z,101419.78
2022-08-03T07:54:36.303Z,101419.78
2022-08-03T07:57:04.163Z,101416.97
2022-08-03T07:59:56.423Z,101422.59
2022-08-03T08:02:23.005Z,101412.97
2022-08-03T08:04:50.839Z,101416.97
2022-08-03T08:07:18.685Z,101423.41
2022-08-03T08:09:48.580Z,101416.97
2022-08-03T08:12:16.739Z,101417.78
2022-08-03T08:14:46.901Z,101425.44
2022-08-03T08:17:14.741Z,101423.41
2022-08-03T08:19:47.498Z,101420.59
2022-08-03T08:22:25.838Z,101424.22
2022-08-03T08:24:58.087Z,101417.78
2022-08-03T08:27:25.921Z,101418.59
2022-08-03T08:29:58.867Z,101407.34
2022-08-03T08:32:30.490Z,101423.41
2022-08-03T08:34:58.455Z,101422.59
2022-08-03T08:37:26.304Z,101416.97
2022-08-03T08:39:54.149Z,101405.72
2022-08-03T08:42:21.998Z,101405.72
2022-08-03T08:44:49.839Z,101410.16
2022-08-03T08:47:19.006Z,101414.97
2022-08-03T08:50:04.036Z,101412.16
2022-08-03T08:52:34.918Z,101412.97
2022-08-03T08:55:04.975Z,101408.16
2022-08-03T08:57:42.860Z,101407.34
2022-08-03T09:00:14.101Z,101412.97
2022-08-03T09:02:43.513Z,101401.72
2022-08-03T09:05:11.709Z,101401.72
2022-08-03T09:07:39.675Z,101396.91
2022-08-03T09:10:12.833Z,101401.72
2022-08-03T09:12:42.760Z,101402.53
2022-08-03T09:15:20.371Z,101396.91
2022-08-03T09:17:51.212Z,101396.09
2022-08-03T09:20:19.417Z,101397.72
2022-08-03T09:22:53.756Z,101400.53
2022-08-03T09:25:24.755Z,101398.53
2022-08-03T09:27:53.450Z,101400.53
2022-08-03T09:30:34.674Z,101394.91
2022-08-03T09:33:04.571Z,101397.72
2022-08-03T09:35:53.166Z,101397.72
2022-08-03T09:38:24.010Z,101397.72
2022-08-03T09:40:54.839Z,101394.91
2022-08-03T09:43:27.701Z,101392.91
2022-08-03T09:46:03.385Z,101386.47
2022-08-03T09:48:33.387Z,101392.09
2022-08-03T09:51:13.135Z,101383.66
2022-08-03T09:53:57.295Z,101390.47
2022-08-03T09:56:38.464Z,101392.91
2022-08-03T09:59:06.292Z,101386.47
2022-08-03T10:01:34.526Z,101385.66
2022-08-03T10:04:05.134Z,101380.81
2022-08-03T10:06:33.188Z,101372.00
2022-08-03T10:09:07.861Z,101381.63
2022-08-03T10:11:40.871Z,101372.38
2022-08-03T10:14:10.166Z,101372.00
2022-08-03T10:16:38.250Z,101370.38
2022-08-03T10:19:07.887Z,101365.56
2022-08-03T10:21:36.449Z,101369.19
2022-08-03T10:24:04.771Z,101363.94
2022-08-03T10:26:33.099Z,101372.81
2022-08-03T10:29:01.061Z,101359.94
2022-08-03T10:31:29.504Z,101359.94
2022-08-03T10:33:57.346Z,101372.81
2022-08-03T10:36:26.640Z,101367.19
2022-08-03T10:38:57.143Z,101343.88
2022-08-03T10:41:34.438Z,101361.56
2022-08-03T10:44:04.326Z,101343.88
2022-08-03T10:46:32.170Z,101345.88
2022-08-03T10:49:00.093Z,101339.03
2022-08-03T10:51:32.125Z,101332.59
2022-08-03T10:54:01.847Z,101339.84
2022-08-03T10:57:14.159Z,101333.41
2022-08-03T11:00:07.422Z,101330.59
2022-08-03T11:02:53.800Z,101322.16
2022-08-03T11:05:27.405Z,101323.78
2022-08-03T11:08:10.011Z,101323.78
2022-08-03T11:10:39.172Z,101330.25
2022-08-03T11:13:07.496Z,101326.59
2022-08-03T11:15:36.063Z,101315.34
2022-08-03T11:18:10.969Z,101322.16
2022-08-03T11:20:45.679Z,101319.81
2022-08-03T11:23:13.637Z,101315.34
2022-08-03T11:26:05.121Z,101318.16
2022-08-03T11:28:34.287Z,101320.97
2022-08-03T11:31:32.956Z,101322.63
2022-08-03T11:34:05.254Z,101328.25
2022-08-03T11:36:33.110Z,101319.81
2022-08-03T11:39:16.807Z,101319.81
2022-08-03T11:41:45.367Z,101314.19
2022-08-03T11:44:19.192Z,101315.81
2022-08-03T11:46:47.036Z,101309.34
2022-08-03T11:49:14.927Z,101310.16
2022-08-03T11:51:42.740Z,101315.81
2022-08-03T11:54:11.576Z,101304.53
2022-08-03T11:56:45.865Z,101310.16
2022-08-03T11:59:20.506Z,101310.97
2022-08-03T12:01:50.810Z,101298.91
2022-08-03T12:04:18.750Z,101297.72
2022-08-03T12:06:59.325Z,101300.53
2022-08-03T12:09:27.167Z,101294.91
2022-08-03T12:11:59.644Z,101294.09
2022-08-03T12:14:49.872Z,101294.91
2022-08-03T12:17:18.234Z,101298.53
2022-08-03T12:19:46.529Z,101296.53
2022-08-03T12:22:16.140Z,101294.91
2022-08-03T12:24:46.394Z,101289.28
2022-08-03T12:27:14.836Z,101282.47
2022-08-03T12:29:42.679Z,101279.63
2022-08-03T12:32:26.959Z,101280.44
2022-08-03T12:34:55.536Z,101280.44
2022-08-03T12:37:23.854Z,101268.38
2022-08-03T12:40:03.048Z,101271.19
2022-08-03T12:42:35.316Z,101266.03
2022-08-03T12:45:18.114Z,101265.22
2022-08-03T12:47:54.364Z,101253.13
2022-08-03T12:50:26.152Z,101251.94
2022-08-03T12:52:53.995Z,101254.78
2022-08-03T12:55:22.090Z,101253.97
2022-08-03T12:57:50.045Z,101249.13
2022-08-03T13:00:28.615Z,101260.41
2022-08-03T13:03:39.613Z,101259.19
2022-08-03T13:05:51.623Z,101262.81
2022-08-03T13:08:20.187Z,101256.38
2022-08-03T13:10:48.028Z,101258.00
2022-08-03T13:13:15.883Z,101250.75
2022-08-03T13:15:48.153Z,101252.38
2022-08-03T13:18:17.659Z,101259.63
2022-08-03T13:20:45.776Z,101253.19
2022-08-03T13:23:21.922Z,101258.00
2022-08-03T13:25:55.731Z,101258.00
2022-08-03T13:28:24.065Z,101247.56
2022-08-03T13:30:51.921Z,101254.00
2022-08-03T13:33:21.075Z,101248.38
2022-08-03T13:35:48.924Z,101248.38
2022-08-03T13:38:17.291Z,101246.38
2022-08-03T13:40:46.050Z,101235.09
2022-08-03T13:43:17.014Z,101238.72
2022-08-03T13:45:51.216Z,101244.34
2022-08-03T13:48:37.080Z,101244.34
2022-08-03T13:51:22.068Z,101236.72
2022-08-03T13:53:50.986Z,101242.34
2022-08-03T13:56:18.843Z,101234.75
2022-08-03T13:58:46.699Z,101229.13
2022-08-03T14:01:14.612Z,101223.50
2022-08-03T14:03:43.807Z,101225.13
2022-08-03T14:06:11.670Z,101226.31
2022-08-03T14:08:39.507Z,101226.31
2022-08-03T14:11:07.460Z,101226.31
2022-08-03T14:13:35.429Z,101217.88
2022-08-03T14:16:03.270Z,101206.59
2022-08-03T14:18:33.837Z,101212.25
2022-08-03T14:21:06.417Z,101212.25
2022-08-03T14:23:34.973Z,101213.84
2022-08-03T14:26:02.807Z,101200.97
2022-08-03T14:28:30.653Z,101202.59
2022-08-03T14:30:58.502Z,101200.97
2022-08-03T14:33:28.511Z,101206.59
2022-08-03T14:35:56.343Z,101209.41
2022-08-03T14:38:25.510Z,101209.78
2022-08-03T14:40:53.472Z,101211.41
2022-08-03T14:43:21.483Z,101206.59
2022-08-03T14:45:52.208Z,101200.97
2022-08-03T14:50:28.836Z,101206.59
2022-08-03T14:51:07.892Z,101206.59
2022-08-03T14:53:37.055Z,101200.13
2022-08-03T14:56:09.842Z,101200.97
2022-08-03T14:58:38.391Z,101195.34
2022-08-03T15:02:03.510Z,101193.34
2022-08-03T15:03:55.799Z,101184.09
2022-08-03T15:06:23.650Z,101190.53
2022-08-03T15:09:13.697Z,101190.53
2022-08-03T15:11:40.692Z,101189.72
2022-08-03T15:14:09.572Z,101184.09
2022-08-03T15:16:37.697Z,101188.88
2022-08-03T15:20:05.565Z,101182.44
2022-08-03T15:21:53.345Z,101184.09
2022-08-03T15:24:22.593Z,101177.28
2022-08-03T15:26:50.569Z,101185.72
2022-08-03T15:30:05.082Z,101180.09
2022-08-03T15:32:09.472Z,101183.22
2022-08-03T15:34:37.732Z,101181.53
2022-08-03T15:37:16.269Z,101182.41
2022-08-03T15:39:58.967Z,101181.28
2022-08-03T15:42:28.030Z,101179.28
2022-08-03T15:44:56.112Z,101179.28
2022-08-03T15:47:24.072Z,101181.69
2022-08-03T15:49:51.916Z,101180.09
2022-08-03T15:52:19.880Z,101176.06
2022-08-03T15:54:49.059Z,101177.69
2022-08-03T15:57:16.900Z,101176.88
2022-08-03T15:59:44.742Z,101172.06
2022-08-03T16:02:12.709Z,101164.81
2022-08-03T16:04:40.670Z,101163.63
2022-08-03T16:07:08.870Z,101160.81
2022-08-03T16:09:42.320Z,101159.19
2022-08-03T16:12:15.741Z,101160.00
2022-08-03T16:14:52.505Z,101169.25
2022-08-03T16:17:21.116Z,101164.81
2022-08-03T16:19:49.342Z,101159.19
2022-08-03T16:22:19.584Z,101164.81
2022-08-03T16:24:49.954Z,101168.81
2022-08-03T16:27:37.189Z,101159.19
2022-08-03T16:30:07.469Z,101159.19
2022-08-03T16:32:35.432Z,101159.19
2022-08-03T16:35:03.278Z,101160.00
2022-08-03T16:37:39.338Z,101160.81
2022-08-03T16:40:08.926Z,101156.78
2022-08-03T16:42:46.975Z,101159.19
2022-08-03T16:45:14.937Z,101157.97
2022-08-03T16:47:42.786Z,101151.53
2022-08-03T16:50:18.963Z,101156.78
2022-08-03T16:52:48.486Z,101160.81
2022-08-03T16:55:42.867Z,101155.97
2022-08-03T16:58:06.703Z,101153.97
2022-08-03T17:00:41.880Z,101153.97
2022-08-03T17:03:18.905Z,101156.78
2022-08-03T17:05:49.786Z,101155.97
2022-08-03T17:08:19.080Z,101167.25
2022-08-03T17:10:54.945Z,101165.22
2022-08-03T17:13:38.781Z,101165.22
2022-08-03T17:16:08.632Z,101169.66
2022-08-03T17:18:37.318Z,101168.03
2022-08-03T17:21:05.961Z,101182.13
2022-08-03T17:23:37.575Z,101175.28
2022-08-03T17:26:10.584Z,101175.28
2022-08-03T17:28:52.008Z,101175.28
2022-08-03T17:31:31.585Z,101170.50
2022-08-03T17:34:00.816Z,101174.50
2022-08-03T17:36:47.734Z,101175.28
2022-08-03T17:39:16.939Z,101180.94
2022-08-03T17:41:49.921Z,101180.94
2022-08-03T17:44:33.082Z,101181.75
2022-08-03T17:47:07.731Z,101191.81
2022-08-03T17:49:39.818Z,101176.94
2022-08-03T17:52:09.936Z,101185.38
2022-08-03T17:55:52.026Z,101176.94
2022-08-03T18:00:44.231Z,101188.19
2022-08-03T18:03:18.305Z,101187.38
2022-08-03T18:06:12.756Z,101195.44
2022-08-03T18:08:37.533Z,101191.81
2022-08-03T18:11:14.489Z,101193.81
2022-08-03T18:13:53.382Z,101187.38
2022-08-03T18:16:29.154Z,101182.56
2022-08-03T18:18:57.227Z,101188.19
2022-08-03T18:21:28.204Z,101183.38
2022-08-03T18:24:15.971Z,101193.81
2022-08-03T18:26:48.439Z,101186.19
2022-08-03T18:29:16.566Z,101187.00
2022-08-03T18:32:02.794Z,101191.00
2022-08-03T18:34:33.789Z,101182.56
2022-08-03T18:37:04.368Z,101182.56
2022-08-03T18:39:35.840Z,101192.63
2022-08-03T18:42:19.355Z,101182.56
2022-08-03T18:44:54.434Z,101189.81
2022-08-03T18:47:28.116Z,101189.81
2022-08-03T18:50:19.199Z,101189.81
2022-08-03T18:52:52.848Z,101187.00
2022-08-03T18:55:32.950Z,101195.44
2022-08-03T18:58:03.177Z,101185.38
2022-08-03T19:00:54.257Z,101189.81
2022-08-03T19:03:25.385Z,101205.91
2022-08-03T19:06:15.870Z,101199.47
2022-08-03T19:08:48.917Z,101208.31
2022-08-03T19:11:18.079Z,101206.72
2022-08-03T19:13:50.209Z,101207.50
2022-08-03T19:16:21.806Z,101205.09
2022-08-03T19:18:51.336Z,101201.06
2022-08-03T19:21:19.673Z,101213.53
2022-08-03T19:23:50.409Z,101215.16
2022-08-03T19:26:30.440Z,101211.53
2022-08-03T19:28:58.563Z,101205.91
2022-08-03T19:31:30.849Z,101218.78
2022-08-03T19:34:01.126Z,101212.34
2022-08-03T19:36:29.171Z,101214.34
2022-08-03T19:38:57.061Z,101209.53
2022-08-03T19:41:25.216Z,101215.97
2022-08-03T19:43:58.018Z,101219.59
2022-08-03T19:46:30.451Z,101217.97
2022-08-03T19:49:01.481Z,101212.34
2022-08-03T19:52:02.266Z,101211.53
2022-08-03T19:54:17.437Z,101215.97
2022-08-03T19:56:57.766Z,101209.53
2022-08-03T19:59:26.487Z,101213.16
2022-08-03T20:01:54.171Z,101211.53
2022-08-03T20:04:23.936Z,101209.53
2022-08-03T20:06:52.267Z,101212.34
2022-08-03T20:09:20.349Z,101210.34
2022-08-03T20:11:48.204Z,101209.53
2022-08-03T20:14:20.938Z,101206.72
2022-08-03T20:16:54.572Z,101198.25
2022-08-03T20:19:25.412Z,101207.50
2022-08-03T20:22:00.580Z,101204.69
2022-08-03T20:24:29.130Z,101199.88
2022-08-03T20:26:57.825Z,101206.72
2022-08-03T20:30:04.852Z,101197.44
2022-08-03T20:32:15.951Z,101201.06
2022-08-03T20:34:45.490Z,101202.69
2022-08-03T20:37:18.397Z,101198.25
2022-08-03T20:39:48.188Z,101203.88
2022-08-03T20:42:21.240Z,101201.06
2022-08-03T20:45:04.567Z,101198.25
2022-08-03T20:47:35.711Z,101201.88
2022-08-03T20:50:07.738Z,101204.69
2022-08-03T20:52:43.770Z,101206.72
2022-08-03T20:55:17.545Z,101207.50
2022-08-03T20:57:49.239Z,101207.50
2022-08-03T21:00:21.948Z,101206.72
2022-08-03T21:02:50.085Z,101205.50
2022-08-03T21:05:30.907Z,101202.28
2022-08-03T21:08:07.251Z,101209.53
2022-08-03T21:10:37.785Z,101209.53
2022-08-03T21:13:04.565Z,101185.38
2022-08-03T21:16:06.397Z,101213.97
2022-08-03T21:18:38.568Z,101213.16
2022-08-03T21:21:07.775Z,101206.72
2022-08-03T21:23:45.485Z,101216.78
2022-08-03T21:26:16.802Z,101211.13
2022-08-03T21:28:44.619Z,101208.31
2022-08-03T21:31:12.466Z,101213.97
2022-08-03T21:33:41.283Z,101213.97
2022-08-03T21:36:16.184Z,101209.53
2022-08-03T21:38:44.149Z,101206.72
2022-08-03T21:41:15.481Z,101210.72
2022-08-03T21:43:43.324Z,101206.72
2022-08-03T21:46:12.117Z,101203.88
2022-08-03T21:48:40.333Z,101205.50
2022-08-03T21:51:08.537Z,101201.06
2022-08-03T21:54:03.257Z,101202.69
2022-08-03T21:56:25.582Z,101201.06
2022-08-03T21:58:54.996Z,101208.31
2022-08-03T22:01:23.482Z,101202.69
2022-08-03T22:03:53.847Z,101201.88
2022-08-03T22:06:22.117Z,101208.31
2022-08-03T22:08:51.764Z,101208.31
2022-08-03T22:11:19.602Z,101211.13
2022-08-03T22:13:47.451Z,101212.34
2022-08-03T22:16:15.305Z,101219.59
2022-08-03T22:18:43.746Z,101222.41
2022-08-03T22:21:12.422Z,101225.22
2022-08-03T22:23:40.879Z,101216.78
2022-08-03T22:26:10.885Z,101226.03
2022-08-03T22:28:38.728Z,101217.97
2022-08-03T22:31:30.745Z,101222.41
2022-08-03T22:33:54.804Z,101228.03
2022-08-03T22:36:23.264Z,101225.22
2022-08-03T22:38:52.002Z,101225.22
2022-08-03T22:41:21.347Z,101230.84
2022-08-03T22:43:49.665Z,101232.84
2022-08-03T22:46:18.812Z,101223.59
2022-08-03T22:48:46.678Z,101229.22
2022-08-03T22:51:15.240Z,101235.66
2022-08-03T22:53:43.080Z,101230.84
2022-08-03T22:56:10.927Z,101229.22
2022-08-03T22:58:40.101Z,101229.66
2022-08-03T23:01:08.418Z,101229.22
2022-08-03T23:04:00.686Z,101233.66
2022-08-03T23:06:24.872Z,101230.84
2022-08-03T23:08:52.829Z,101229.66
2022-08-03T23:11:20.689Z,101225.22
2022-08-03T23:13:50.569Z,101221.19
2022-08-03T23:16:27.933Z,101230.03
2022-08-03T23:18:57.538Z,101230.03
2022-08-03T23:21:53.142Z,101222.41
2022-08-03T23:24:29.334Z,101223.22
2022-08-03T23:26:58.161Z,101223.22
2022-08-03T23:29:27.306Z,101217.97
2022-08-03T23:31:55.039Z,101224.41
2022-08-03T23:34:40.527Z,101224.41
2022-08-03T23:37:08.481Z,101223.22
2022-08-03T23:39:36.366Z,101224.41
2022-08-03T23:42:05.967Z,101221.59
2022-08-03T23:44:35.136Z,101226.03
2022-08-03T23:47:02.993Z,101219.59
2022-08-03T23:49:30.830Z,101219.59
2022-08-03T23:51:59.991Z,101223.59
2022-08-03T23:54:30.592Z,101225.22
2022-08-03T23:57:00.479Z,101217.97
2022-08-03T23:59:29.907Z,101224.41
